createdAt,value
2022-12-08T00:02:42.565Z,19.40
2022-12-08T00:06:05.129Z,19.40
2022-12-08T00:09:24.221Z,19.10
2022-12-08T00:12:26.639Z,16.60
2022-12-08T00:15:29.051Z,18.75
2022-12-08T00:18:31.439Z,17.75
2022-12-08T00:21:33.903Z,17.60
2022-12-08T00:24:39.751Z,18.00
2022-12-08T00:27:42.363Z,17.48
2022-12-08T00:30:45.028Z,17.05
2022-12-08T00:33:47.459Z,17.53
2022-12-08T00:36:49.880Z,19.70
2022-12-08T00:39:52.255Z,18.73
2022-12-08T00:42:54.666Z,22.77
2022-12-08T00:45:57.098Z,19.63
2022-12-08T00:48:59.645Z,17.98
2022-12-08T00:52:02.104Z,18.60
2022-12-08T00:55:06.191Z,18.70
2022-12-08T00:58:08.639Z,17.65
2022-12-08T01:01:11.934Z,18.77
2022-12-08T01:04:18.141Z,17.93
2022-12-08T01:07:20.677Z,17.35
2022-12-08T01:10:23.573Z,16.23
2022-12-08T01:13:25.972Z,15.07
2022-12-08T01:16:33.675Z,14.40
2022-12-08T01:19:37.868Z,14.45
2022-12-08T01:22:40.400Z,12.20
2022-12-08T01:25:42.777Z,12.57
2022-12-08T01:28:46.087Z,13.25
2022-12-08T01:31:48.538Z,15.05
2022-12-08T01:34:50.991Z,13.87
2022-12-08T01:37:53.335Z,13.18
2022-12-08T01:40:55.815Z,15.20
2022-12-08T01:43:58.212Z,15.10
2022-12-08T01:47:00.703Z,13.75
2022-12-08T01:50:06.979Z,14.52
2022-12-08T01:53:14.546Z,17.10
2022-12-08T01:56:29.812Z,17.42
2022-12-08T01:59:38.233Z,17.38
2022-12-08T02:03:19.029Z,17.63
2022-12-08T02:06:21.640Z,18.23
2022-12-08T02:09:24.666Z,17.83
2022-12-08T02:12:27.188Z,16.48
2022-12-08T02:15:38.916Z,15.87
2022-12-08T02:19:30.426Z,17.48
2022-12-08T02:22:46.502Z,16.67
2022-12-08T02:26:01.244Z,16.73
2022-12-08T02:29:12.607Z,17.10
2022-12-08T02:32:55.589Z,18.00
2022-12-08T02:36:04.258Z,17.60
2022-12-08T02:39:15.725Z,16.57
2022-12-08T02:42:28.115Z,16.75
2022-12-08T02:45:36.849Z,17.48
2022-12-08T02:48:39.454Z,20.37
2022-12-08T02:51:41.870Z,17.35
2022-12-08T02:54:50.728Z,17.13
2022-12-08T02:57:58.964Z,17.88
2022-12-08T03:01:29.242Z,18.77
2022-12-08T03:04:47.180Z,16.73
2022-12-08T03:08:11.441Z,17.15
2022-12-08T03:11:23.401Z,13.97
2022-12-08T03:14:26.187Z,16.67
2022-12-08T03:17:31.208Z,17.52
2022-12-08T03:20:35.487Z,17.33
2022-12-08T03:23:39.527Z,15.02
2022-12-08T03:27:00.219Z,15.25
2022-12-08T03:30:03.233Z,15.77
2022-12-08T03:33:30.930Z,15.48
2022-12-08T03:36:33.802Z,17.58
2022-12-08T03:39:36.247Z,19.17
2022-12-08T03:42:38.728Z,18.90
2022-12-08T03:45:41.157Z,21.55
2022-12-08T03:48:43.709Z,18.67
2022-12-08T03:51:46.156Z,16.70
2022-12-08T03:54:48.666Z,16.25
2022-12-08T03:57:51.044Z,17.10
2022-12-08T04:00:53.420Z,21.10
2022-12-08T04:03:55.977Z,19.90
2022-12-08T04:06:58.465Z,17.98
2022-12-08T04:10:00.874Z,19.77
2022-12-08T04:13:03.434Z,19.33
2022-12-08T04:16:06.963Z,17.27
2022-12-08T04:19:15.398Z,17.40
2022-12-08T04:22:17.831Z,18.17
2022-12-08T04:25:20.235Z,21.33
2022-12-08T04:28:22.983Z,13.25
2022-12-08T04:31:25.576Z,19.50
2022-12-08T04:34:27.979Z,7.68
2022-12-08T04:37:30.389Z,10.85
2022-12-08T04:40:33.616Z,13.55
2022-12-08T04:43:36.973Z,15.30
2022-12-08T04:46:43.418Z,17.02
2022-12-08T04:49:46.367Z,14.57
2022-12-08T04:52:48.789Z,15.37
2022-12-08T04:55:51.314Z,19.75
2022-12-08T04:58:54.464Z,15.18
2022-12-08T05:01:57.293Z,18.92
2022-12-08T05:05:00.200Z,20.60
2022-12-08T05:08:02.744Z,17.58
2022-12-08T05:11:06.810Z,25.88
2022-12-08T05:14:12.009Z,24.40
2022-12-08T05:17:15.763Z,19.90
2022-12-08T05:20:18.183Z,18.23
2022-12-08T05:23:21.196Z,18.30
2022-12-08T05:26:23.591Z,19.35
2022-12-08T05:29:26.174Z,18.40
2022-12-08T05:32:28.615Z,17.55
2022-12-08T05:35:31.000Z,18.88
2022-12-08T05:38:33.436Z,19.83
2022-12-08T05:41:35.843Z,23.23
2022-12-08T05:44:38.316Z,24.87
2022-12-08T05:47:40.763Z,23.88
2022-12-08T05:50:50.425Z,31.30
2022-12-08T05:53:53.549Z,26.83
2022-12-08T05:56:56.013Z,25.52
2022-12-08T05:59:59.603Z,28.95
2022-12-08T06:03:02.503Z,25.55
2022-12-08T06:06:05.149Z,24.63
2022-12-08T06:09:09.064Z,25.20
2022-12-08T06:12:12.102Z,26.45
2022-12-08T06:15:14.570Z,22.87
2022-12-08T06:18:17.018Z,23.05
2022-12-08T06:21:20.026Z,25.35
2022-12-08T06:24:22.773Z,24.67
2022-12-08T06:27:25.364Z,23.63
2022-12-08T06:30:28.750Z,28.02
2022-12-08T06:33:31.366Z,30.98
2022-12-08T06:36:34.740Z,32.47
2022-12-08T06:39:37.348Z,28.52
2022-12-08T06:42:43.817Z,26.67
2022-12-08T06:45:46.297Z,20.87
2022-12-08T06:48:50.663Z,24.08
2022-12-08T06:51:53.207Z,23.02
2022-12-08T06:54:55.666Z,23.13
2022-12-08T06:57:58.150Z,22.80
2022-12-08T07:01:05.616Z,18.30
2022-12-08T07:04:08.443Z,18.77
2022-12-08T07:07:10.885Z,20.92
2022-12-08T07:10:13.736Z,21.60
2022-12-08T07:13:16.346Z,22.30
2022-12-08T07:16:19.057Z,20.60
2022-12-08T07:19:22.030Z,20.48
2022-12-08T07:22:24.763Z,21.45
2022-12-08T07:25:28.410Z,22.87
2022-12-08T07:28:32.791Z,21.73
2022-12-08T07:31:35.283Z,21.25
2022-12-08T07:34:38.092Z,22.20
2022-12-08T07:37:41.125Z,21.00
2022-12-08T07:40:43.662Z,21.38
2022-12-08T07:43:46.708Z,21.95
2022-12-08T07:46:49.094Z,20.93
2022-12-08T07:49:51.570Z,21.98
2022-12-08T07:52:54.120Z,22.55
2022-12-08T07:55:56.579Z,18.43
2022-12-08T07:58:59.025Z,19.13
2022-12-08T08:02:22.833Z,19.33
2022-12-08T08:05:24.118Z,17.80
2022-12-08T08:08:26.665Z,18.40
2022-12-08T08:11:29.322Z,17.85
2022-12-08T08:14:31.840Z,17.83
2022-12-08T08:17:36.458Z,17.67
2022-12-08T08:20:39.100Z,14.43
2022-12-08T08:23:41.676Z,18.52
2022-12-08T08:26:44.225Z,18.05
2022-12-08T08:29:46.796Z,16.30
2022-12-08T08:32:49.998Z,18.23
2022-12-08T08:35:52.462Z,19.25
2022-12-08T08:38:54.915Z,16.65
2022-12-08T08:41:57.848Z,14.77
2022-12-08T08:45:00.248Z,19.60
2022-12-08T08:48:02.855Z,17.75
2022-12-08T08:51:10.722Z,17.20
2022-12-08T08:54:13.238Z,13.18
2022-12-08T08:57:18.421Z,17.58
2022-12-08T09:00:23.216Z,26.48
2022-12-08T09:03:25.757Z,20.27
2022-12-08T09:06:28.709Z,21.73
2022-12-08T09:09:31.548Z,18.10
2022-12-08T09:12:34.033Z,17.73
2022-12-08T09:15:36.568Z,21.35
2022-12-08T09:18:39.159Z,16.48
2022-12-08T09:21:41.628Z,13.40
2022-12-08T09:24:44.126Z,17.42
2022-12-08T09:27:46.632Z,19.48
2022-12-08T09:30:51.764Z,16.02
2022-12-08T09:33:54.399Z,18.73
2022-12-08T09:36:57.203Z,17.65
2022-12-08T09:40:00.246Z,16.65
2022-12-08T09:43:21.375Z,17.00
2022-12-08T09:46:29.033Z,17.20
2022-12-08T09:49:43.030Z,19.73
2022-12-08T09:53:08.518Z,22.43
2022-12-08T09:56:18.900Z,21.20
2022-12-08T09:59:30.555Z,19.20
2022-12-08T10:02:33.113Z,20.40
2022-12-08T10:05:41.653Z,20.83
2022-12-08T10:09:21.175Z,22.65
2022-12-08T10:12:40.728Z,18.27
2022-12-08T10:16:14.022Z,17.60
2022-12-08T10:19:24.464Z,10.60
2022-12-08T10:22:33.682Z,23.02
2022-12-08T10:25:48.720Z,20.70
2022-12-08T10:28:51.803Z,19.48
2022-12-08T10:31:57.181Z,20.90
2022-12-08T10:35:11.163Z,19.33
2022-12-08T10:38:37.622Z,16.90
2022-12-08T10:41:40.732Z,18.70
2022-12-08T10:45:10.546Z,19.83
2022-12-08T10:48:21.287Z,18.17
2022-12-08T10:51:34.539Z,14.13
2022-12-08T10:54:42.048Z,19.83
2022-12-08T10:57:45.141Z,19.65
2022-12-08T11:00:48.143Z,19.77
2022-12-08T11:04:05.598Z,19.75
2022-12-08T11:07:13.355Z,18.23
2022-12-08T11:10:19.012Z,20.00
2022-12-08T11:13:24.545Z,18.60
2022-12-08T11:16:28.097Z,19.75
2022-12-08T11:19:30.914Z,21.10
2022-12-08T11:22:37.163Z,19.37
2022-12-08T11:25:40.248Z,20.40
2022-12-08T11:28:43.098Z,20.83
2022-12-08T11:31:54.772Z,20.50
2022-12-08T11:35:06.721Z,21.50
2022-12-08T11:38:22.996Z,21.07
2022-12-08T11:41:42.020Z,21.52
2022-12-08T11:44:59.053Z,20.90
2022-12-08T11:48:17.623Z,22.43
2022-12-08T11:51:33.464Z,22.80
2022-12-08T11:54:46.003Z,20.52
2022-12-08T11:57:49.128Z,21.60
2022-12-08T12:00:51.897Z,21.20
2022-12-08T12:04:22.869Z,20.35
2022-12-08T12:07:43.816Z,19.52
2022-12-08T12:11:04.846Z,19.75
2022-12-08T12:14:32.528Z,20.10
2022-12-08T12:17:54.196Z,20.42
2022-12-08T12:21:08.182Z,21.95
2022-12-08T12:24:23.931Z,22.47
2022-12-08T12:27:37.551Z,22.50
2022-12-08T12:31:03.065Z,23.83
2022-12-08T12:34:17.066Z,21.38
2022-12-08T12:37:42.093Z,19.97
2022-12-08T12:40:44.693Z,18.65
2022-12-08T12:44:09.271Z,20.88
2022-12-08T12:47:14.733Z,19.80
2022-12-08T12:50:38.723Z,19.67
2022-12-08T12:53:41.088Z,19.50
2022-12-08T12:56:49.082Z,19.40
2022-12-08T12:59:55.226Z,20.55
2022-12-08T13:02:59.237Z,18.40
2022-12-08T13:06:02.690Z,18.67
2022-12-08T13:09:07.312Z,18.67
2022-12-08T13:12:18.077Z,17.53
2022-12-08T13:15:21.030Z,20.33
2022-12-08T13:18:26.122Z,23.10
2022-12-08T13:21:36.063Z,24.08
2022-12-08T13:24:38.615Z,22.10
2022-12-08T13:27:52.517Z,24.95
2022-12-08T13:30:59.840Z,24.52
2022-12-08T13:34:06.787Z,25.63
2022-12-08T13:37:12.324Z,26.58
2022-12-08T13:40:20.943Z,28.70
2022-12-08T13:43:38.797Z,25.20
2022-12-08T13:47:17.170Z,21.63
2022-12-08T13:57:28.798Z,20.67
2022-12-08T14:00:31.791Z,20.63
2022-12-08T14:04:12.431Z,21.48
2022-12-08T14:07:10.223Z,22.85
2022-12-08T14:10:28.448Z,24.17
2022-12-08T14:13:33.231Z,24.97
2022-12-08T14:16:57.369Z,23.83
2022-12-08T14:20:11.947Z,23.17
2022-12-08T14:23:17.457Z,24.50
2022-12-08T14:26:19.913Z,28.33
2022-12-08T14:29:36.716Z,32.42
2022-12-08T14:32:49.742Z,25.10
2022-12-08T14:35:55.002Z,37.97
2022-12-08T14:38:57.711Z,42.97
2022-12-08T14:42:06.553Z,29.85
2022-12-08T14:45:15.075Z,27.15
2022-12-08T14:48:20.527Z,23.40
2022-12-08T14:51:31.900Z,24.48
2022-12-08T14:54:34.531Z,25.42
2022-12-08T14:57:37.037Z,27.27
2022-12-08T15:00:46.471Z,19.02
2022-12-08T15:03:51.454Z,16.08
2022-12-08T15:06:57.220Z,19.97
2022-12-08T15:10:29.526Z,16.88
2022-12-08T15:13:32.071Z,17.45
2022-12-08T15:16:34.485Z,12.88
2022-12-08T15:19:37.019Z,11.70
2022-12-08T15:22:39.452Z,16.65
2022-12-08T15:25:41.914Z,15.80
2022-12-08T15:28:44.321Z,12.83
2022-12-08T15:31:47.030Z,18.58
2022-12-08T15:34:50.016Z,12.05
2022-12-08T15:37:52.504Z,17.67
2022-12-08T15:40:56.420Z,12.05
2022-12-08T15:43:58.773Z,18.85
2022-12-08T15:47:01.866Z,19.67
2022-12-08T15:50:05.480Z,18.37
2022-12-08T15:53:12.528Z,15.68
2022-12-08T15:56:30.385Z,15.18
2022-12-08T15:59:32.880Z,32.73
2022-12-08T16:03:04.928Z,16.42
2022-12-08T16:06:50.943Z,13.80
2022-12-08T16:09:32.829Z,13.45
2022-12-08T16:16:21.500Z,14.77
2022-12-08T16:19:23.961Z,9.77
2022-12-08T16:26:20.278Z,11.55
2022-12-08T16:29:19.754Z,10.98
2022-12-08T16:32:22.495Z,8.10
2022-12-08T16:35:24.972Z,13.50
2022-12-08T16:38:27.462Z,12.35
2022-12-08T16:41:48.504Z,10.27
2022-12-08T16:44:51.145Z,9.20
2022-12-08T16:48:00.751Z,14.82
2022-12-08T16:51:04.629Z,12.65
2022-12-08T16:54:07.143Z,15.43
2022-12-08T16:57:09.553Z,11.40
2022-12-08T17:00:18.150Z,9.10
2022-12-08T17:03:21.027Z,8.48
2022-12-08T17:06:23.527Z,11.00
2022-12-08T17:09:26.970Z,11.32
2022-12-08T17:12:29.624Z,13.38
2022-12-08T17:15:32.053Z,6.83
2022-12-08T17:18:34.859Z,9.10
2022-12-08T17:21:37.530Z,6.82
2022-12-08T17:24:40.081Z,9.53
2022-12-08T17:27:42.750Z,6.90
2022-12-08T17:30:45.320Z,9.65
2022-12-08T17:33:48.026Z,9.77
2022-12-08T17:36:50.969Z,9.43
2022-12-08T17:39:53.417Z,6.22
2022-12-08T17:42:55.985Z,8.15
2022-12-08T17:45:58.660Z,10.60
2022-12-08T17:49:01.265Z,8.70
2022-12-08T17:52:06.917Z,5.95
2022-12-08T17:55:10.124Z,5.75
2022-12-08T17:58:12.894Z,8.77
2022-12-08T18:01:15.448Z,7.28
2022-12-08T18:04:18.362Z,6.57
2022-12-08T18:07:20.900Z,11.57
2022-12-08T18:10:23.410Z,11.27
2022-12-08T18:13:26.149Z,12.35
2022-12-08T18:16:29.030Z,14.60
2022-12-08T18:19:31.746Z,11.77
2022-12-08T18:22:34.973Z,15.25
2022-12-08T18:25:37.506Z,11.90
2022-12-08T18:28:41.074Z,11.05
2022-12-08T18:31:44.207Z,10.13
2022-12-08T18:34:46.724Z,11.50
2022-12-08T18:37:49.334Z,12.70
2022-12-08T18:40:51.939Z,10.75
2022-12-08T18:43:57.037Z,12.83
2022-12-08T18:46:59.649Z,8.68
2022-12-08T18:50:02.777Z,11.93
2022-12-08T18:53:05.645Z,6.00
2022-12-08T18:56:09.460Z,10.07
2022-12-08T18:59:13.191Z,11.13
2022-12-08T19:02:16.217Z,11.07
2022-12-08T19:05:20.279Z,8.67
2022-12-08T19:08:28.166Z,14.43
2022-12-08T19:11:33.648Z,12.65
2022-12-08T19:14:36.277Z,12.33
2022-12-08T19:17:38.863Z,13.05
2022-12-08T19:20:41.301Z,13.52
2022-12-08T19:23:44.438Z,14.15
2022-12-08T19:26:46.906Z,14.13
2022-12-08T19:29:49.459Z,14.63
2022-12-08T19:32:52.111Z,14.57
2022-12-08T19:35:54.693Z,15.27
2022-12-08T19:39:15.984Z,14.00
2022-12-08T19:42:39.351Z,15.80
2022-12-08T19:45:44.101Z,18.35
2022-12-08T19:48:46.916Z,14.33
2022-12-08T19:51:49.563Z,15.70
2022-12-08T19:54:52.398Z,16.75
2022-12-08T19:57:56.773Z,13.70
2022-12-08T20:00:59.511Z,12.70
2022-12-08T20:04:01.953Z,12.55
2022-12-08T20:07:04.508Z,12.10
2022-12-08T20:10:14.458Z,11.65
2022-12-08T20:13:35.655Z,11.88
2022-12-08T20:16:38.313Z,14.90
2022-12-08T20:19:41.384Z,15.70
2022-12-08T20:22:45.343Z,13.63
2022-12-08T20:25:48.317Z,12.95
2022-12-08T20:28:57.846Z,14.45
2022-12-08T20:32:00.671Z,14.65
2022-12-08T20:35:03.984Z,16.50
2022-12-08T20:38:06.989Z,16.40
2022-12-08T20:41:10.235Z,16.45
2022-12-08T20:44:12.750Z,18.70
2022-12-08T20:47:16.163Z,19.53
2022-12-08T20:50:19.022Z,21.35
2022-12-08T20:53:21.913Z,24.05
2022-12-08T20:56:25.728Z,21.90
2022-12-08T20:59:28.857Z,23.08
2022-12-08T21:02:31.542Z,24.80
2022-12-08T21:05:36.272Z,29.80
2022-12-08T21:08:39.388Z,30.03
2022-12-08T21:11:42.177Z,30.02
2022-12-08T21:14:45.191Z,32.20
2022-12-08T21:17:48.045Z,29.90
2022-12-08T21:20:51.650Z,37.20
2022-12-08T21:23:54.489Z,43.40
2022-12-08T21:26:57.146Z,47.40
2022-12-08T21:29:59.740Z,52.40
2022-12-08T21:33:02.244Z,67.70
2022-12-08T21:36:12.107Z,59.30
2022-12-08T21:39:14.652Z,44.55
2022-12-08T21:42:35.883Z,38.58
2022-12-08T21:45:39.691Z,55.23
2022-12-08T21:48:42.211Z,45.70
2022-12-08T21:51:44.744Z,44.58
2022-12-08T21:54:47.407Z,48.08
2022-12-08T21:57:49.897Z,37.80
2022-12-08T22:00:52.628Z,33.15
2022-12-08T22:03:55.817Z,37.05
2022-12-08T22:06:58.432Z,34.47
2022-12-08T22:10:01.070Z,23.63
2022-12-08T22:13:03.992Z,21.30
2022-12-08T22:16:08.722Z,19.73
2022-12-08T22:19:12.200Z,20.95
2022-12-08T22:22:16.204Z,20.97
2022-12-08T22:25:18.787Z,18.88
2022-12-08T22:28:21.165Z,19.80
2022-12-08T22:31:23.657Z,22.13
2022-12-08T22:34:26.237Z,17.48
2022-12-08T22:37:28.875Z,19.08
2022-12-08T22:40:31.283Z,19.50
2022-12-08T22:43:34.200Z,18.87
2022-12-08T22:46:37.017Z,18.60
2022-12-08T22:49:39.473Z,18.60
2022-12-08T22:52:42.226Z,20.48
2022-12-08T22:55:45.125Z,19.27
2022-12-08T22:58:48.290Z,16.88
2022-12-08T23:01:51.465Z,15.85
2022-12-08T23:04:57.582Z,16.63
2022-12-08T23:08:00.514Z,15.10
2022-12-08T23:11:02.957Z,15.85
2022-12-08T23:14:05.420Z,15.77
2022-12-08T23:17:08.186Z,16.58
2022-12-08T23:20:11.758Z,15.60
2022-12-08T23:23:15.043Z,15.93
2022-12-08T23:26:22.098Z,15.63
2022-12-08T23:29:24.680Z,16.60
2022-12-08T23:32:27.479Z,15.55
2022-12-08T23:35:29.999Z,16.42
2022-12-08T23:38:33.110Z,15.40
2022-12-08T23:41:35.541Z,16.13
2022-12-08T23:44:38.093Z,15.73
2022-12-08T23:47:40.609Z,14.82
2022-12-08T23:50:43.095Z,15.68
2022-12-08T23:53:45.989Z,16.50
2022-12-08T23:56:48.460Z,15.27
2022-12-08T23:59:50.942Z,16.05
